createdAt,value
2019-03-30T00:02:13.441Z,43.52
2019-03-30T00:04:43.491Z,43.53
2019-03-30T00:07:13.567Z,43.52
2019-03-30T00:09:43.889Z,43.51
2019-03-30T00:12:14.000Z,43.50
2019-03-30T00:14:44.305Z,43.51
2019-03-30T00:17:14.388Z,43.52
2019-03-30T00:19:44.435Z,43.49
2019-03-30T00:22:14.517Z,43.50
2019-03-30T00:24:44.569Z,43.50
2019-03-30T00:27:14.628Z,43.52
2019-03-30T00:29:44.935Z,43.49
2019-03-30T00:32:15.543Z,43.48
2019-03-30T00:34:45.628Z,43.49
2019-03-30T00:37:15.682Z,43.48
2019-03-30T00:39:45.742Z,43.46
2019-03-30T00:42:15.799Z,43.44
2019-03-30T00:44:45.889Z,43.46
2019-03-30T00:47:15.970Z,43.45
2019-03-30T00:49:49.655Z,43.44
2019-03-30T00:52:17.769Z,43.42
2019-03-30T00:54:47.817Z,43.43
2019-03-30T00:57:17.881Z,43.45
2019-03-30T00:59:47.953Z,43.40
2019-03-30T01:02:18.560Z,43.45
2019-03-30T01:04:48.634Z,43.43
2019-03-30T01:07:18.737Z,43.40
2019-03-30T01:09:48.813Z,43.42
2019-03-30T01:12:19.193Z,43.41
2019-03-30T01:14:49.273Z,43.41
2019-03-30T01:17:19.590Z,43.40
2019-03-30T01:20:02.408Z,43.42
2019-03-30T01:22:21.390Z,43.40
2019-03-30T01:24:51.464Z,43.41
2019-03-30T01:27:21.522Z,43.41
2019-03-30T01:29:51.578Z,43.39
2019-03-30T01:32:21.919Z,43.41
2019-03-30T01:34:51.980Z,43.38
2019-03-30T01:37:22.317Z,43.37
2019-03-30T01:39:52.389Z,43.38
2019-03-30T01:42:22.439Z,43.35
2019-03-30T01:44:52.638Z,43.36
2019-03-30T01:47:22.944Z,43.37
2019-03-30T01:49:52.999Z,43.37
2019-03-30T01:52:23.068Z,43.35
2019-03-30T01:54:53.114Z,43.38
2019-03-30T01:57:23.183Z,43.36
2019-03-30T01:59:53.241Z,43.36
2019-03-30T02:02:23.317Z,43.34
2019-03-30T02:04:53.386Z,43.36
2019-03-30T02:07:23.440Z,43.36
2019-03-30T02:09:53.518Z,43.35
2019-03-30T02:12:23.561Z,43.35
2019-03-30T02:14:53.612Z,43.36
2019-03-30T02:17:23.653Z,43.37
2019-03-30T02:19:53.698Z,43.37
2019-03-30T02:22:23.771Z,43.39
2019-03-30T02:24:53.820Z,43.40
2019-03-30T02:27:23.863Z,43.42
2019-03-30T02:29:53.964Z,43.40
2019-03-30T02:32:24.030Z,43.43
2019-03-30T02:34:54.084Z,43.39
2019-03-30T02:37:24.130Z,43.40
2019-03-30T02:39:54.190Z,43.38
2019-03-30T02:42:24.530Z,43.40
2019-03-30T02:44:55.270Z,43.39
2019-03-30T02:47:25.705Z,43.36
2019-03-30T02:49:55.855Z,43.40
2019-03-30T02:52:25.906Z,43.38
2019-03-30T02:54:55.980Z,43.38
2019-03-30T02:57:26.114Z,43.34
2019-03-30T02:59:56.274Z,43.39
2019-03-30T03:02:26.339Z,43.39
2019-03-30T03:04:56.662Z,43.40
2019-03-30T03:07:27.010Z,43.41
2019-03-30T03:09:57.071Z,43.44
2019-03-30T03:12:27.132Z,43.45
2019-03-30T03:14:57.229Z,43.48
2019-03-30T03:17:27.658Z,43.51
2019-03-30T03:19:58.310Z,43.54
2019-03-30T03:22:28.390Z,43.57
2019-03-30T03:24:58.440Z,43.58
2019-03-30T03:27:28.493Z,43.60
2019-03-30T03:29:58.564Z,43.61
2019-03-30T03:32:28.617Z,43.62
2019-03-30T03:34:58.654Z,43.63
2019-03-30T03:37:43.098Z,43.62
2019-03-30T03:40:00.590Z,43.67
2019-03-30T03:42:30.585Z,43.66
2019-03-30T03:45:00.725Z,43.69
2019-03-30T03:47:30.799Z,43.71
2019-03-30T03:50:01.476Z,43.70
2019-03-30T03:52:31.841Z,43.74
2019-03-30T03:55:02.151Z,43.74
2019-03-30T03:57:33.553Z,43.75
2019-03-30T04:00:03.610Z,43.76
2019-03-30T04:02:36.640Z,43.77
2019-03-30T04:05:08.382Z,43.80
2019-03-30T04:07:41.451Z,43.81
2019-03-30T04:10:11.548Z,43.79
2019-03-30T04:12:42.061Z,43.81
2019-03-30T04:15:16.127Z,43.80
2019-03-30T04:17:46.398Z,43.81
2019-03-30T04:20:20.765Z,43.80
2019-03-30T04:22:51.057Z,43.84
2019-03-30T04:25:21.372Z,43.82
2019-03-30T04:27:51.443Z,43.83
2019-03-30T04:30:21.486Z,43.83
2019-03-30T04:32:51.543Z,43.86
2019-03-30T04:35:21.839Z,43.88
2019-03-30T04:37:51.881Z,43.85
2019-03-30T04:40:21.935Z,43.86
2019-03-30T04:42:52.239Z,43.88
2019-03-30T04:45:23.080Z,43.88
2019-03-30T04:47:53.377Z,43.91
2019-03-30T04:50:23.701Z,43.91
2019-03-30T04:52:53.769Z,43.91
2019-03-30T04:55:24.081Z,43.94
2019-03-30T04:57:57.957Z,43.90
2019-03-30T05:00:25.879Z,43.91
2019-03-30T05:02:56.351Z,43.95
2019-03-30T05:05:26.682Z,43.91
2019-03-30T05:07:56.718Z,43.91
2019-03-30T05:10:26.955Z,43.95
2019-03-30T05:12:57.647Z,44.01
2019-03-30T05:15:28.097Z,44.02
2019-03-30T05:17:58.234Z,44.04
2019-03-30T05:20:28.391Z,44.07
2019-03-30T05:22:58.823Z,44.10
2019-03-30T05:25:30.364Z,44.10
2019-03-30T05:28:00.834Z,44.13
2019-03-30T05:30:30.970Z,44.13
2019-03-30T05:33:06.141Z,44.11
2019-03-30T05:35:33.202Z,44.14
2019-03-30T05:38:03.386Z,44.15
2019-03-30T05:40:33.451Z,44.18
2019-03-30T05:43:03.601Z,44.22
2019-03-30T05:45:33.667Z,44.25
2019-03-30T05:48:03.816Z,44.27
2019-03-30T05:50:33.881Z,44.31
2019-03-30T05:53:04.016Z,44.29
2019-03-30T05:55:34.150Z,44.30
2019-03-30T05:58:04.815Z,44.32
2019-03-30T06:00:34.954Z,44.35
2019-03-30T06:03:05.031Z,44.35
2019-03-30T06:05:35.513Z,44.40
2019-03-30T06:08:05.935Z,44.42
2019-03-30T06:10:38.596Z,44.47
2019-03-30T06:13:07.840Z,44.50
2019-03-30T06:15:38.006Z,44.57
2019-03-30T06:18:11.256Z,44.54
2019-03-30T06:20:39.953Z,44.58
2019-03-30T06:23:10.522Z,44.55
2019-03-30T06:25:40.992Z,44.56
2019-03-30T06:28:11.233Z,44.57
2019-03-30T06:30:41.300Z,44.57
2019-03-30T06:33:11.431Z,44.60
2019-03-30T06:35:41.576Z,44.62
2019-03-30T06:38:11.730Z,44.66
2019-03-30T06:40:41.800Z,44.65
2019-03-30T06:43:11.940Z,44.64
2019-03-30T06:45:42.440Z,44.68
2019-03-30T06:48:12.495Z,44.66
2019-03-30T06:50:42.640Z,44.70
2019-03-30T06:53:12.813Z,44.64
2019-03-30T06:55:42.869Z,44.61
2019-03-30T06:58:13.004Z,44.69
2019-03-30T07:00:43.140Z,44.69
2019-03-30T07:03:13.275Z,44.66
2019-03-30T07:05:43.752Z,44.62
2019-03-30T07:08:15.069Z,44.58
2019-03-30T07:10:49.062Z,44.56
2019-03-30T07:13:19.249Z,44.58
2019-03-30T07:15:50.249Z,44.56
2019-03-30T07:18:21.212Z,44.54
2019-03-30T07:20:51.358Z,44.55
2019-03-30T07:23:21.509Z,44.60
2019-03-30T07:25:51.582Z,44.62
2019-03-30T07:28:21.731Z,44.64
2019-03-30T07:30:51.822Z,44.64
2019-03-30T07:33:21.917Z,44.61
2019-03-30T07:35:52.053Z,44.57
2019-03-30T07:38:22.244Z,44.53
2019-03-30T07:40:52.457Z,44.51
2019-03-30T07:43:22.563Z,44.50
2019-03-30T07:45:52.648Z,44.54
2019-03-30T07:48:22.792Z,44.53
2019-03-30T07:50:52.943Z,44.52
2019-03-30T07:53:26.661Z,44.54
2019-03-30T07:56:07.743Z,44.59
2019-03-30T07:58:27.426Z,44.60
2019-03-30T08:00:57.623Z,44.62
2019-03-30T08:03:27.775Z,44.65
2019-03-30T08:05:57.923Z,44.68
2019-03-30T08:08:28.393Z,44.72
2019-03-30T08:10:58.811Z,44.77
2019-03-30T08:13:29.984Z,44.83
2019-03-30T08:16:00.312Z,44.83
2019-03-30T08:18:30.527Z,44.86
2019-03-30T08:21:00.682Z,44.84
2019-03-30T08:23:40.154Z,44.82
2019-03-30T08:26:02.599Z,44.82
2019-03-30T08:28:32.689Z,44.79
2019-03-30T08:31:02.800Z,44.76
2019-03-30T08:33:33.308Z,44.74
2019-03-30T08:36:03.357Z,44.74
2019-03-30T08:38:33.501Z,44.75
2019-03-30T08:41:03.864Z,44.72
2019-03-30T08:43:33.918Z,44.73
2019-03-30T08:46:03.988Z,44.71
2019-03-30T08:48:34.701Z,44.69
2019-03-30T08:51:04.977Z,44.68
2019-03-30T08:53:35.465Z,44.67
2019-03-30T08:56:05.873Z,44.64
2019-03-30T08:58:36.058Z,44.65
2019-03-30T09:01:06.203Z,44.63
2019-03-30T09:03:36.353Z,44.61
2019-03-30T09:06:06.497Z,44.57
2019-03-30T09:08:36.711Z,44.56
2019-03-30T09:11:07.045Z,44.56
2019-03-30T09:13:37.207Z,44.56
2019-03-30T09:16:07.353Z,44.58
2019-03-30T09:18:37.429Z,44.58
2019-03-30T09:21:07.577Z,44.54
2019-03-30T09:23:37.719Z,44.65
2019-03-30T09:26:07.959Z,44.63
2019-03-30T09:28:38.076Z,44.64
2019-03-30T09:31:08.170Z,44.53
2019-03-30T09:33:38.339Z,44.41
2019-03-30T09:36:08.595Z,44.33
2019-03-30T09:38:38.831Z,44.11
2019-03-30T09:41:09.007Z,44.07
2019-03-30T09:43:39.083Z,44.01
2019-03-30T09:46:09.262Z,44.00
2019-03-30T09:48:39.407Z,43.94
2019-03-30T09:51:09.919Z,43.90
2019-03-30T09:53:40.007Z,43.83
2019-03-30T09:56:10.156Z,43.80
2019-03-30T09:58:40.308Z,43.85
2019-03-30T10:01:10.372Z,43.79
2019-03-30T10:03:40.595Z,44.44
2019-03-30T10:06:10.776Z,44.30
2019-03-30T10:08:41.207Z,44.47
2019-03-30T10:11:11.385Z,45.01
2019-03-30T10:13:41.553Z,45.52
2019-03-30T10:16:11.817Z,45.84
2019-03-30T10:18:42.297Z,45.94
2019-03-30T10:21:12.451Z,45.90
2019-03-30T10:23:42.520Z,45.80
2019-03-30T10:26:13.018Z,45.80
2019-03-30T10:28:43.199Z,45.77
2019-03-30T10:31:13.422Z,45.63
2019-03-30T10:33:43.585Z,45.57
2019-03-30T10:36:13.751Z,45.51
2019-03-30T10:38:43.996Z,45.66
2019-03-30T10:41:14.120Z,45.57
2019-03-30T10:43:44.230Z,45.47
2019-03-30T10:46:14.316Z,45.30
2019-03-30T10:48:44.460Z,45.27
2019-03-30T10:51:14.529Z,45.20
2019-03-30T10:53:44.708Z,45.16
2019-03-30T10:56:15.148Z,45.14
2019-03-30T10:58:45.294Z,45.14
2019-03-30T11:01:17.519Z,45.19
2019-03-30T11:03:47.583Z,45.23
2019-03-30T11:06:17.751Z,45.23
2019-03-30T11:08:47.824Z,45.21
2019-03-30T11:11:17.967Z,45.19
2019-03-30T11:13:48.061Z,45.19
2019-03-30T11:16:18.210Z,45.13
2019-03-30T11:18:48.688Z,45.08
2019-03-30T11:21:18.844Z,45.05
2019-03-30T11:23:50.262Z,45.04
2019-03-30T11:26:20.424Z,45.03
2019-03-30T11:28:50.582Z,45.03
2019-03-30T11:31:20.759Z,45.01
2019-03-30T11:33:51.267Z,44.99
2019-03-30T11:36:21.763Z,44.98
2019-03-30T11:38:51.842Z,44.99
2019-03-30T11:41:24.859Z,44.97
2019-03-30T11:43:54.156Z,44.94
2019-03-30T11:46:24.240Z,44.92
2019-03-30T11:48:54.382Z,44.92
2019-03-30T11:51:24.782Z,44.95
2019-03-30T11:53:54.928Z,44.91
2019-03-30T11:56:25.081Z,44.92
2019-03-30T11:58:55.214Z,44.92
2019-03-30T12:01:25.367Z,44.88
2019-03-30T12:03:55.531Z,44.92
2019-03-30T12:06:25.589Z,44.89
2019-03-30T12:08:55.739Z,44.87
2019-03-30T12:11:26.098Z,44.91
2019-03-30T12:13:56.248Z,44.89
2019-03-30T12:16:26.910Z,44.87
2019-03-30T12:18:57.392Z,44.88
2019-03-30T12:21:27.513Z,44.90
2019-03-30T12:23:57.933Z,44.88
2019-03-30T12:26:28.090Z,44.84
2019-03-30T12:28:58.272Z,44.86
2019-03-30T12:31:28.443Z,44.83
2019-03-30T12:33:58.695Z,44.81
2019-03-30T12:36:29.145Z,44.82
2019-03-30T12:38:59.216Z,44.81
2019-03-30T12:41:29.440Z,44.81
2019-03-30T12:43:59.582Z,44.81
2019-03-30T12:46:30.291Z,44.81
2019-03-30T12:49:00.451Z,44.78
2019-03-30T12:51:30.517Z,44.82
2019-03-30T12:54:00.682Z,44.77
2019-03-30T12:56:30.832Z,44.76
2019-03-30T12:59:01.322Z,44.74
2019-03-30T13:01:31.773Z,44.73
2019-03-30T13:04:01.870Z,44.74
2019-03-30T13:06:32.013Z,44.83
2019-03-30T13:09:02.264Z,44.71
2019-03-30T13:11:32.371Z,44.71
2019-03-30T13:14:02.460Z,44.31
2019-03-30T13:16:32.805Z,44.36
2019-03-30T13:19:03.088Z,44.26
2019-03-30T13:21:33.235Z,44.19
2019-03-30T13:24:03.316Z,44.02
2019-03-30T13:26:33.496Z,44.03
2019-03-30T13:29:03.649Z,43.95
2019-03-30T13:31:33.853Z,43.93
2019-03-30T13:34:04.366Z,43.87
2019-03-30T13:36:39.365Z,43.85
2019-03-30T13:39:09.597Z,43.80
2019-03-30T13:41:39.670Z,43.81
2019-03-30T13:44:09.886Z,43.78
2019-03-30T13:46:40.397Z,43.91
2019-03-30T13:49:10.549Z,43.92
2019-03-30T13:51:40.716Z,43.96
2019-03-30T13:54:11.480Z,43.88
2019-03-30T13:56:41.660Z,43.93
2019-03-30T13:59:11.740Z,44.00
2019-03-30T14:01:41.909Z,44.05
2019-03-30T14:04:12.162Z,44.02
2019-03-30T14:06:42.886Z,44.01
2019-03-30T14:09:13.164Z,44.04
2019-03-30T14:11:43.336Z,44.04
2019-03-30T14:14:13.529Z,43.58
2019-03-30T14:16:43.625Z,43.11
2019-03-30T14:19:13.844Z,43.02
2019-03-30T14:21:44.023Z,43.17
2019-03-30T14:24:14.118Z,43.38
2019-03-30T14:26:44.201Z,43.36
2019-03-30T14:29:14.330Z,43.43
2019-03-30T14:31:44.700Z,43.50
2019-03-30T14:34:14.812Z,43.63
2019-03-30T14:36:45.276Z,43.95
2019-03-30T14:39:15.440Z,44.12
2019-03-30T14:41:45.598Z,44.17
2019-03-30T14:44:15.760Z,44.24
2019-03-30T14:46:45.977Z,44.26
2019-03-30T14:49:16.134Z,44.32
2019-03-30T14:51:46.295Z,44.36
2019-03-30T14:54:17.805Z,44.35
2019-03-30T14:56:47.932Z,44.36
2019-03-30T14:59:18.104Z,44.38
2019-03-30T15:01:48.276Z,44.37
2019-03-30T15:04:18.701Z,44.40
2019-03-30T15:06:48.867Z,44.38
2019-03-30T15:09:18.949Z,44.37
2019-03-30T15:11:49.043Z,44.37
2019-03-30T15:14:19.207Z,44.37
2019-03-30T15:16:49.379Z,44.41
2019-03-30T15:19:19.546Z,44.41
2019-03-30T15:21:49.743Z,44.38
2019-03-30T15:24:20.164Z,44.44
2019-03-30T15:26:59.871Z,44.47
2019-03-30T15:29:22.168Z,44.48
2019-03-30T15:31:52.366Z,44.48
2019-03-30T15:34:22.517Z,44.53
2019-03-30T15:36:52.631Z,44.57
2019-03-30T15:39:23.038Z,44.58
2019-03-30T15:41:53.212Z,44.58
2019-03-30T15:44:23.380Z,44.52
2019-03-30T15:46:53.864Z,44.49
2019-03-30T15:49:24.413Z,44.47
2019-03-30T15:51:54.598Z,44.46
2019-03-30T15:54:25.047Z,44.45
2019-03-30T15:56:55.545Z,44.43
2019-03-30T15:59:25.727Z,44.39
2019-03-30T16:01:55.817Z,44.38
2019-03-30T16:04:26.015Z,44.41
2019-03-30T16:06:56.190Z,44.32
2019-03-30T16:09:26.367Z,44.31
2019-03-30T16:11:56.575Z,44.27
2019-03-30T16:14:26.675Z,44.23
2019-03-30T16:16:56.773Z,44.17
2019-03-30T16:19:26.911Z,44.14
2019-03-30T16:21:57.010Z,44.14
2019-03-30T16:24:30.017Z,44.13
2019-03-30T16:26:59.238Z,44.16
2019-03-30T16:29:29.369Z,44.12
2019-03-30T16:31:59.548Z,44.03
2019-03-30T16:34:29.720Z,44.03
2019-03-30T16:36:59.932Z,43.99
2019-03-30T16:39:30.131Z,44.02
2019-03-30T16:42:00.498Z,44.05
2019-03-30T16:44:30.681Z,44.12
2019-03-30T16:47:00.922Z,44.16
2019-03-30T16:49:31.162Z,44.17
2019-03-30T16:52:01.581Z,44.13
2019-03-30T16:54:31.754Z,44.21
2019-03-30T16:57:01.865Z,44.26
2019-03-30T16:59:31.945Z,44.39
2019-03-30T17:02:02.190Z,44.51
2019-03-30T17:04:32.794Z,44.94
2019-03-30T17:07:02.959Z,45.65
2019-03-30T17:09:33.082Z,46.35
2019-03-30T17:12:03.257Z,47.08
2019-03-30T17:14:33.492Z,47.66
2019-03-30T17:17:04.059Z,48.17
2019-03-30T17:19:34.217Z,48.28
2019-03-30T17:22:04.422Z,48.47
2019-03-30T17:24:34.828Z,48.41
2019-03-30T17:27:04.997Z,48.33
2019-03-30T17:29:35.516Z,48.33
2019-03-30T17:32:06.000Z,48.31
2019-03-30T17:34:36.467Z,48.17
2019-03-30T17:37:06.720Z,48.04
2019-03-30T17:39:36.829Z,47.92
2019-03-30T17:42:07.015Z,47.85
2019-03-30T17:44:37.497Z,47.66
2019-03-30T17:47:07.943Z,47.61
2019-03-30T17:49:38.401Z,47.56
2019-03-30T17:52:09.188Z,47.52
2019-03-30T17:54:40.040Z,47.50
2019-03-30T17:57:10.301Z,47.49
2019-03-30T17:59:40.380Z,47.43
2019-03-30T18:02:10.549Z,47.41
2019-03-30T18:04:40.732Z,47.38
2019-03-30T18:07:13.648Z,47.40
2019-03-30T18:09:42.845Z,47.40
2019-03-30T18:12:12.998Z,47.39
2019-03-30T18:14:43.274Z,47.39
2019-03-30T18:17:13.375Z,47.44
2019-03-30T18:19:43.555Z,47.41
2019-03-30T18:22:13.674Z,47.37
2019-03-30T18:24:43.874Z,47.41
2019-03-30T18:27:13.987Z,47.42
2019-03-30T18:29:44.127Z,47.42
2019-03-30T18:32:14.311Z,47.39
2019-03-30T18:34:44.423Z,47.41
2019-03-30T18:37:14.859Z,47.44
2019-03-30T18:39:45.268Z,47.43
2019-03-30T18:42:15.550Z,47.42
2019-03-30T18:44:45.780Z,47.46
2019-03-30T18:47:15.994Z,47.46
2019-03-30T18:49:46.538Z,47.49
2019-03-30T18:52:16.720Z,47.52
2019-03-30T18:54:47.099Z,47.50
2019-03-30T18:57:17.259Z,47.50
2019-03-30T18:59:47.357Z,47.47
2019-03-30T19:02:19.182Z,47.54
2019-03-30T19:04:49.395Z,47.56
2019-03-30T19:07:19.948Z,47.58
2019-03-30T19:09:50.131Z,47.60
2019-03-30T19:12:20.214Z,47.60
2019-03-30T19:14:50.364Z,47.69
2019-03-30T19:17:20.886Z,47.68
2019-03-30T19:19:51.351Z,47.73
2019-03-30T19:22:21.509Z,47.78
2019-03-30T19:24:51.690Z,47.82
2019-03-30T19:27:21.908Z,47.83
2019-03-30T19:29:52.398Z,47.83
2019-03-30T19:32:24.319Z,47.87
2019-03-30T19:34:54.750Z,47.89
2019-03-30T19:37:24.923Z,47.90
2019-03-30T19:39:55.145Z,47.91
2019-03-30T19:42:25.321Z,47.91
2019-03-30T19:44:55.492Z,47.95
2019-03-30T19:47:25.597Z,48.28
2019-03-30T19:49:55.818Z,48.83
2019-03-30T19:52:39.248Z,49.06
2019-03-30T19:54:57.870Z,49.00
2019-03-30T19:57:28.287Z,49.00
2019-03-30T19:59:58.485Z,49.04
2019-03-30T20:02:28.582Z,49.22
2019-03-30T20:04:59.141Z,49.26
2019-03-30T20:07:29.429Z,49.34
2019-03-30T20:09:59.899Z,49.49
2019-03-30T20:12:30.208Z,49.36
2019-03-30T20:15:00.458Z,49.41
2019-03-30T20:17:30.530Z,49.28
2019-03-30T20:20:00.656Z,49.34
2019-03-30T20:22:30.993Z,49.27
2019-03-30T20:25:01.375Z,49.23
2019-03-30T20:27:31.572Z,49.20
2019-03-30T20:30:01.670Z,49.18
2019-03-30T20:32:31.778Z,49.12
2019-03-30T20:35:01.950Z,49.09
2019-03-30T20:37:32.150Z,49.04
2019-03-30T20:40:02.268Z,49.00
2019-03-30T20:42:32.895Z,48.95
2019-03-30T20:45:03.428Z,48.87
2019-03-30T20:47:33.866Z,48.86
2019-03-30T20:50:04.479Z,48.92
2019-03-30T20:52:34.647Z,48.99
2019-03-30T20:55:05.208Z,48.95
2019-03-30T20:57:35.340Z,49.09
2019-03-30T21:00:07.127Z,49.09
2019-03-30T21:02:37.225Z,49.01
2019-03-30T21:05:07.775Z,48.96
2019-03-30T21:07:41.712Z,48.92
2019-03-30T21:10:10.264Z,48.87
2019-03-30T21:12:40.425Z,48.88
2019-03-30T21:15:10.631Z,48.80
2019-03-30T21:17:40.795Z,48.82
2019-03-30T21:20:11.045Z,48.74
2019-03-30T21:22:41.118Z,48.74
2019-03-30T21:25:11.345Z,48.72
2019-03-30T21:27:41.913Z,48.72
2019-03-30T21:30:12.136Z,48.71
2019-03-30T21:32:42.361Z,48.68
2019-03-30T21:35:12.883Z,48.70
2019-03-30T21:37:43.074Z,48.64
2019-03-30T21:40:13.222Z,48.67
2019-03-30T21:42:43.381Z,48.62
2019-03-30T21:45:13.534Z,48.58
2019-03-30T21:47:43.692Z,48.60
2019-03-30T21:50:13.939Z,48.61
2019-03-30T21:52:44.822Z,48.59
2019-03-30T21:55:14.998Z,48.58
2019-03-30T21:57:45.201Z,48.59
2019-03-30T22:00:21.227Z,48.59
2019-03-30T22:02:51.374Z,48.57
2019-03-30T22:05:21.612Z,48.56
2019-03-30T22:07:51.690Z,48.55
2019-03-30T22:10:28.281Z,48.56
2019-03-30T22:12:59.236Z,48.58
2019-03-30T22:15:29.421Z,48.67
2019-03-30T22:17:59.495Z,48.94
2019-03-30T22:20:30.042Z,49.17
2019-03-30T22:23:00.225Z,49.21
2019-03-30T22:25:30.414Z,49.25
2019-03-30T22:28:00.555Z,49.28
2019-03-30T22:30:30.974Z,49.26
2019-03-30T22:33:01.054Z,49.23
2019-03-30T22:35:31.203Z,49.23
2019-03-30T22:38:01.309Z,49.22
2019-03-30T22:40:31.465Z,49.19
2019-03-30T22:43:01.627Z,49.15
2019-03-30T22:45:31.768Z,49.43
2019-03-30T22:48:02.119Z,49.51
2019-03-30T22:50:32.283Z,49.49
2019-03-30T22:53:02.435Z,49.37
2019-03-30T22:55:32.582Z,49.44
2019-03-30T22:58:02.655Z,49.39
2019-03-30T23:00:51.888Z,49.51
2019-03-30T23:03:22.057Z,49.60
2019-03-30T23:05:52.141Z,49.68
2019-03-30T23:08:22.277Z,49.72
2019-03-30T23:10:52.477Z,49.81
2019-03-30T23:13:22.621Z,49.81
2019-03-30T23:15:53.019Z,49.87
2019-03-30T23:18:23.157Z,49.92
2019-03-30T23:20:53.313Z,49.88
2019-03-30T23:23:23.799Z,49.87
2019-03-30T23:25:54.304Z,49.82
2019-03-30T23:28:24.437Z,49.74
2019-03-30T23:30:54.967Z,49.66
2019-03-30T23:33:25.210Z,49.65
2019-03-30T23:35:55.372Z,49.63
2019-03-30T23:38:25.450Z,49.57
2019-03-30T23:40:55.652Z,49.54
2019-03-30T23:43:25.806Z,49.50
2019-03-30T23:45:55.947Z,49.47
2019-03-30T23:48:26.432Z,49.39
2019-03-30T23:50:56.592Z,49.31
2019-03-30T23:53:26.665Z,49.29
2019-03-30T23:55:57.594Z,49.23
2019-03-30T23:58:27.772Z,49.22
